Minneapolis, Minnesota
Traffic Map
Current Weather Conditions
Minneapolis, Minnesota
Overcast
Overcast
69°
Feels Like: 69°
Wind Chill: 69° Ceiling: 11000
Heat Index: 69° Visibility: 10mi
Dew Point: 58° Wind: 6mph
Humidity: 68% Direction: 70° (ENE)
Pressure: 30.03in Gusts: 0mph
Raw Report DataKMSP 210853Z 07005KT 10SM FEW033 OVC110 21/14 A3003 RMK AO2 SLP163 T02060144 53001 $
Traffic Incident Summary
Active as of:
Severity:
Category:
InformationThere was an issue retrieving the traffic information for this location. Please try a different location or try again shortly.
Advertisements